sensor_id;sensor_type;location;lat;lon;timestamp;temperature;humidity
14097;DHT22;7125;48.106;11.544;2022-10-31T00:00:44;9.20;99.90
14097;DHT22;7125;48.106;11.544;2022-10-31T00:03:11;9.20;99.90
14097;DHT22;7125;48.106;11.544;2022-10-31T00:05:41;9.10;99.90
14097;DHT22;7125;48.106;11.544;2022-10-31T00:08:08;9.10;99.90
14097;DHT22;7125;48.106;11.544;2022-10-31T00:10:37;9.10;99.90
14097;DHT22;7125;48.106;11.544;2022-10-31T00:13:06;9.10;99.90
14097;DHT22;7125;48.106;11.544;2022-10-31T00:15:33;9.00;99.90
14097;DHT22;7125;48.106;11.544;2022-10-31T00:18:00;9.00;99.90
14097;DHT22;7125;48.106;11.544;2022-10-31T00:20:28;9.00;99.90
14097;DHT22;7125;48.106;11.544;2022-10-31T00:22:58;9.00;99.90
14097;DHT22;7125;48.106;11.544;2022-10-31T00:25:25;9.00;99.90
14097;DHT22;7125;48.106;11.544;2022-10-31T00:27:53;9.00;99.90
14097;DHT22;7125;48.106;11.544;2022-10-31T00:30:22;9.00;99.90
14097;DHT22;7125;48.106;11.544;2022-10-31T00:32:49;9.00;99.90
14097;DHT22;7125;48.106;11.544;2022-10-31T00:35:17;8.90;99.90
14097;DHT22;7125;48.106;11.544;2022-10-31T00:37:44;8.90;99.90
14097;DHT22;7125;48.106;11.544;2022-10-31T00:40:11;8.90;99.90
14097;DHT22;7125;48.106;11.544;2022-10-31T00:42:40;8.90;99.90
14097;DHT22;7125;48.106;11.544;2022-10-31T00:45:08;8.90;99.90
14097;DHT22;7125;48.106;11.544;2022-10-31T00:47:36;8.90;99.90
14097;DHT22;7125;48.106;11.544;2022-10-31T00:50:04;8.90;99.90
14097;DHT22;7125;48.106;11.544;2022-10-31T00:52:31;8.80;99.90
14097;DHT22;7125;48.106;11.544;2022-10-31T00:54:58;8.80;99.90
14097;DHT22;7125;48.106;11.544;2022-10-31T00:57:26;8.80;99.90
14097;DHT22;7125;48.106;11.544;2022-10-31T00:59:53;8.80;99.90
14097;DHT22;7125;48.106;11.544;2022-10-31T01:02:20;8.80;99.90
14097;DHT22;7125;48.106;11.544;2022-10-31T01:04:50;8.80;99.90
14097;DHT22;7125;48.106;11.544;2022-10-31T01:07:17;8.80;99.90
14097;DHT22;7125;48.106;11.544;2022-10-31T01:09:44;8.80;99.90
14097;DHT22;7125;48.106;11.544;2022-10-31T01:12:11;8.70;99.90
14097;DHT22;7125;48.106;11.544;2022-10-31T01:14:43;8.70;99.90
14097;DHT22;7125;48.106;11.544;2022-10-31T01:17:10;8.70;99.90
14097;DHT22;7125;48.106;11.544;2022-10-31T01:19:37;8.70;99.90
14097;DHT22;7125;48.106;11.544;2022-10-31T01:22:05;8.70;99.90
14097;DHT22;7125;48.106;11.544;2022-10-31T01:24:32;8.70;99.90
14097;DHT22;7125;48.106;11.544;2022-10-31T01:27:01;8.70;99.90
14097;DHT22;7125;48.106;11.544;2022-10-31T01:29:32;8.70;99.90
14097;DHT22;7125;48.106;11.544;2022-10-31T01:31:59;8.60;99.90
14097;DHT22;7125;48.106;11.544;2022-10-31T01:34:26;8.60;99.90
14097;DHT22;7125;48.106;11.544;2022-10-31T01:36:53;8.60;99.90
14097;DHT22;7125;48.106;11.544;2022-10-31T01:39:23;8.60;99.90
14097;DHT22;7125;48.106;11.544;2022-10-31T01:41:52;8.60;99.90
14097;DHT22;7125;48.106;11.544;2022-10-31T01:44:49;8.60;99.90
14097;DHT22;7125;48.106;11.544;2022-10-31T01:47:20;8.60;99.90
14097;DHT22;7125;48.106;11.544;2022-10-31T01:49:52;8.50;99.90
14097;DHT22;7125;48.106;11.544;2022-10-31T01:52:22;8.50;99.90
14097;DHT22;7125;48.106;11.544;2022-10-31T01:54:54;8.50;99.90
14097;DHT22;7125;48.106;11.544;2022-10-31T01:57:23;8.50;99.90
14097;DHT22;7125;48.106;11.544;2022-10-31T01:59:55;8.40;99.90
14097;DHT22;7125;48.106;11.544;2022-10-31T02:02:25;8.40;99.90
14097;DHT22;7125;48.106;11.544;2022-10-31T02:04:54;8.40;99.90
14097;DHT22;7125;48.106;11.544;2022-10-31T02:07:25;8.40;99.90
14097;DHT22;7125;48.106;11.544;2022-10-31T02:09:59;8.40;99.90
14097;DHT22;7125;48.106;11.544;2022-10-31T02:12:27;8.30;99.90
14097;DHT22;7125;48.106;11.544;2022-10-31T02:14:59;8.30;99.90
14097;DHT22;7125;48.106;11.544;2022-10-31T02:17:26;8.30;99.90
14097;DHT22;7125;48.106;11.544;2022-10-31T02:20:00;8.30;99.90
14097;DHT22;7125;48.106;11.544;2022-10-31T02:22:33;8.30;99.90
14097;DHT22;7125;48.106;11.544;2022-10-31T02:25:26;8.30;99.90
14097;DHT22;7125;48.106;11.544;2022-10-31T02:28:30;8.30;99.90
14097;DHT22;7125;48.106;11.544;2022-10-31T02:31:13;8.30;99.90
14097;DHT22;7125;48.106;11.544;2022-10-31T02:33:48;8.30;99.90
14097;DHT22;7125;48.106;11.544;2022-10-31T02:36:23;8.30;99.90
14097;DHT22;7125;48.106;11.544;2022-10-31T02:38:56;8.30;99.90
14097;DHT22;7125;48.106;11.544;2022-10-31T02:41:41;8.30;99.90
14097;DHT22;7125;48.106;11.544;2022-10-31T02:44:16;8.30;99.90
14097;DHT22;7125;48.106;11.544;2022-10-31T02:46:49;8.30;99.90
14097;DHT22;7125;48.106;11.544;2022-10-31T02:49:23;8.20;99.90
14097;DHT22;7125;48.106;11.544;2022-10-31T02:51:52;8.20;99.90
14097;DHT22;7125;48.106;11.544;2022-10-31T02:54:22;8.20;99.90
14097;DHT22;7125;48.106;11.544;2022-10-31T02:56:54;8.20;99.90
14097;DHT22;7125;48.106;11.544;2022-10-31T02:59:24;8.20;99.90
14097;DHT22;7125;48.106;11.544;2022-10-31T03:02:16;8.10;99.90
14097;DHT22;7125;48.106;11.544;2022-10-31T03:05:05;8.10;99.90
14097;DHT22;7125;48.106;11.544;2022-10-31T03:07:42;8.10;99.90
14097;DHT22;7125;48.106;11.544;2022-10-31T03:10:20;8.10;99.90
14097;DHT22;7125;48.106;11.544;2022-10-31T03:12:57;8.00;99.90
14097;DHT22;7125;48.106;11.544;2022-10-31T03:15:28;8.10;99.90
14097;DHT22;7125;48.106;11.544;2022-10-31T03:18:01;8.10;99.90
14097;DHT22;7125;48.106;11.544;2022-10-31T03:20:33;8.10;99.90
14097;DHT22;7125;48.106;11.544;2022-10-31T03:23:03;8.10;99.90
14097;DHT22;7125;48.106;11.544;2022-10-31T03:25:33;8.00;99.90
14097;DHT22;7125;48.106;11.544;2022-10-31T03:28:04;8.00;99.90
14097;DHT22;7125;48.106;11.544;2022-10-31T03:30:34;8.00;99.90
14097;DHT22;7125;48.106;11.544;2022-10-31T03:33:09;8.00;99.90
14097;DHT22;7125;48.106;11.544;2022-10-31T03:35:41;8.00;99.90
14097;DHT22;7125;48.106;11.544;2022-10-31T03:38:10;8.00;99.90
14097;DHT22;7125;48.106;11.544;2022-10-31T03:40:40;8.00;99.90
14097;DHT22;7125;48.106;11.544;2022-10-31T03:43:14;8.00;99.90
14097;DHT22;7125;48.106;11.544;2022-10-31T03:45:45;8.00;99.90
14097;DHT22;7125;48.106;11.544;2022-10-31T03:48:16;8.00;99.90
14097;DHT22;7125;48.106;11.544;2022-10-31T03:50:50;8.00;99.90
14097;DHT22;7125;48.106;11.544;2022-10-31T03:53:25;8.00;99.90
14097;DHT22;7125;48.106;11.544;2022-10-31T03:55:59;8.00;99.90
14097;DHT22;7125;48.106;11.544;2022-10-31T03:58:32;8.00;99.90
14097;DHT22;7125;48.106;11.544;2022-10-31T04:01:01;8.00;99.90
14097;DHT22;7125;48.106;11.544;2022-10-31T04:03:36;7.90;99.90
14097;DHT22;7125;48.106;11.544;2022-10-31T04:06:08;7.90;99.90
14097;DHT22;7125;48.106;11.544;2022-10-31T04:08:41;7.90;99.90
14097;DHT22;7125;48.106;11.544;2022-10-31T04:11:15;7.90;99.90
14097;DHT22;7125;48.106;11.544;2022-10-31T04:13:48;7.90;99.90
14097;DHT22;7125;48.106;11.544;2022-10-31T04:16:21;7.90;99.90
14097;DHT22;7125;48.106;11.544;2022-10-31T04:18:51;7.80;99.90
14097;DHT22;7125;48.106;11.544;2022-10-31T04:21:26;7.80;99.90
14097;DHT22;7125;48.106;11.544;2022-10-31T04:23:57;7.80;99.90
14097;DHT22;7125;48.106;11.544;2022-10-31T04:26:27;7.80;99.90
14097;DHT22;7125;48.106;11.544;2022-10-31T04:28:54;7.80;99.90
14097;DHT22;7125;48.106;11.544;2022-10-31T04:31:21;7.70;99.90
14097;DHT22;7125;48.106;11.544;2022-10-31T04:33:50;7.70;99.90
14097;DHT22;7125;48.106;11.544;2022-10-31T04:36:18;7.70;99.90
14097;DHT22;7125;48.106;11.544;2022-10-31T04:38:44;7.70;99.90
14097;DHT22;7125;48.106;11.544;2022-10-31T04:41:29;7.70;99.90
14097;DHT22;7125;48.106;11.544;2022-10-31T04:44:01;7.70;99.90
14097;DHT22;7125;48.106;11.544;2022-10-31T04:46:29;7.60;99.90
14097;DHT22;7125;48.106;11.544;2022-10-31T04:48:59;7.60;99.90
14097;DHT22;7125;48.106;11.544;2022-10-31T04:51:27;7.60;99.90
14097;DHT22;7125;48.106;11.544;2022-10-31T04:53:54;7.60;99.90
14097;DHT22;7125;48.106;11.544;2022-10-31T04:56:27;7.60;99.90
14097;DHT22;7125;48.106;11.544;2022-10-31T04:59:05;7.50;99.90
14097;DHT22;7125;48.106;11.544;2022-10-31T05:01:44;7.50;99.90
14097;DHT22;7125;48.106;11.544;2022-10-31T05:04:12;7.50;99.90
14097;DHT22;7125;48.106;11.544;2022-10-31T05:06:41;7.50;99.90
14097;DHT22;7125;48.106;11.544;2022-10-31T05:09:08;7.50;99.90
14097;DHT22;7125;48.106;11.544;2022-10-31T05:11:35;7.40;99.90
14097;DHT22;7125;48.106;11.544;2022-10-31T05:14:17;7.40;99.90
14097;DHT22;7125;48.106;11.544;2022-10-31T05:17:03;7.40;99.90
14097;DHT22;7125;48.106;11.544;2022-10-31T05:19:54;7.40;99.90
14097;DHT22;7125;48.106;11.544;2022-10-31T05:22:45;7.40;99.90
14097;DHT22;7125;48.106;11.544;2022-10-31T05:25:13;7.40;99.90
14097;DHT22;7125;48.106;11.544;2022-10-31T05:27:42;7.40;99.90
14097;DHT22;7125;48.106;11.544;2022-10-31T05:30:10;7.30;99.90
14097;DHT22;7125;48.106;11.544;2022-10-31T05:32:38;7.30;99.90
14097;DHT22;7125;48.106;11.544;2022-10-31T05:35:27;7.30;99.90
14097;DHT22;7125;48.106;11.544;2022-10-31T05:38:15;7.30;99.90
14097;DHT22;7125;48.106;11.544;2022-10-31T05:40:43;7.30;99.90
14097;DHT22;7125;48.106;11.544;2022-10-31T05:43:10;7.30;99.90
14097;DHT22;7125;48.106;11.544;2022-10-31T05:45:37;7.30;99.90
14097;DHT22;7125;48.106;11.544;2022-10-31T05:48:11;7.20;99.90
14097;DHT22;7125;48.106;11.544;2022-10-31T05:51:05;7.20;99.90
14097;DHT22;7125;48.106;11.544;2022-10-31T05:53:33;7.20;99.90
14097;DHT22;7125;48.106;11.544;2022-10-31T05:56:00;7.20;99.90
14097;DHT22;7125;48.106;11.544;2022-10-31T05:58:28;7.20;99.90
14097;DHT22;7125;48.106;11.544;2022-10-31T06:01:02;7.20;99.90
14097;DHT22;7125;48.106;11.544;2022-10-31T06:03:30;7.20;99.90
14097;DHT22;7125;48.106;11.544;2022-10-31T06:05:58;7.20;99.90
14097;DHT22;7125;48.106;11.544;2022-10-31T06:08:33;7.20;99.90
14097;DHT22;7125;48.106;11.544;2022-10-31T06:11:04;7.20;99.90
14097;DHT22;7125;48.106;11.544;2022-10-31T06:13:54;7.20;99.90
14097;DHT22;7125;48.106;11.544;2022-10-31T06:16:25;7.20;99.90
14097;DHT22;7125;48.106;11.544;2022-10-31T06:18:57;7.20;99.90
14097;DHT22;7125;48.106;11.544;2022-10-31T06:21:24;7.20;99.90
14097;DHT22;7125;48.106;11.544;2022-10-31T06:23:52;7.20;99.90
14097;DHT22;7125;48.106;11.544;2022-10-31T06:26:35;7.20;99.90
14097;DHT22;7125;48.106;11.544;2022-10-31T06:29:02;7.30;99.90
14097;DHT22;7125;48.106;11.544;2022-10-31T06:31:51;7.30;99.90
14097;DHT22;7125;48.106;11.544;2022-10-31T06:34:18;7.30;99.90
14097;DHT22;7125;48.106;11.544;2022-10-31T06:36:46;7.30;99.90
14097;DHT22;7125;48.106;11.544;2022-10-31T06:39:15;7.30;99.90
14097;DHT22;7125;48.106;11.544;2022-10-31T06:41:43;7.30;99.90
14097;DHT22;7125;48.106;11.544;2022-10-31T06:44:10;7.40;99.90
14097;DHT22;7125;48.106;11.544;2022-10-31T06:47:03;7.40;99.90
14097;DHT22;7125;48.106;11.544;2022-10-31T06:49:40;7.40;99.90
14097;DHT22;7125;48.106;11.544;2022-10-31T06:52:14;7.40;99.90
14097;DHT22;7125;48.106;11.544;2022-10-31T06:54:42;7.50;99.90
14097;DHT22;7125;48.106;11.544;2022-10-31T06:57:10;7.50;99.90
14097;DHT22;7125;48.106;11.544;2022-10-31T06:59:38;7.50;99.90
14097;DHT22;7125;48.106;11.544;2022-10-31T07:02:13;7.60;99.90
14097;DHT22;7125;48.106;11.544;2022-10-31T07:04:42;7.60;99.90
14097;DHT22;7125;48.106;11.544;2022-10-31T07:07:12;7.70;99.90
14097;DHT22;7125;48.106;11.544;2022-10-31T07:09:39;7.70;99.90
14097;DHT22;7125;48.106;11.544;2022-10-31T07:12:10;7.80;99.90
14097;DHT22;7125;48.106;11.544;2022-10-31T07:14:43;7.80;99.90
14097;DHT22;7125;48.106;11.544;2022-10-31T07:17:10;7.90;99.90
14097;DHT22;7125;48.106;11.544;2022-10-31T07:19:43;8.00;99.90
14097;DHT22;7125;48.106;11.544;2022-10-31T07:22:12;8.00;99.90
14097;DHT22;7125;48.106;11.544;2022-10-31T07:24:42;8.10;99.90
14097;DHT22;7125;48.106;11.544;2022-10-31T07:27:10;8.10;99.90
14097;DHT22;7125;48.106;11.544;2022-10-31T07:29:38;8.20;99.90
14097;DHT22;7125;48.106;11.544;2022-10-31T07:32:07;8.30;99.90
14097;DHT22;7125;48.106;11.544;2022-10-31T07:34:39;8.40;99.90
14097;DHT22;7125;48.106;11.544;2022-10-31T07:37:18;8.40;99.90
14097;DHT22;7125;48.106;11.544;2022-10-31T07:39:46;8.50;99.90
14097;DHT22;7125;48.106;11.544;2022-10-31T07:42:14;8.60;99.90
14097;DHT22;7125;48.106;11.544;2022-10-31T07:44:44;8.70;99.90
14097;DHT22;7125;48.106;11.544;2022-10-31T07:47:51;8.80;99.90
14097;DHT22;7125;48.106;11.544;2022-10-31T07:50:36;8.90;99.90
14097;DHT22;7125;48.106;11.544;2022-10-31T07:53:23;8.90;99.90
14097;DHT22;7125;48.106;11.544;2022-10-31T07:55:58;9.00;99.90
14097;DHT22;7125;48.106;11.544;2022-10-31T07:58:30;9.20;99.90
14097;DHT22;7125;48.106;11.544;2022-10-31T08:01:00;9.30;99.90
14097;DHT22;7125;48.106;11.544;2022-10-31T08:03:37;9.40;99.90
14097;DHT22;7125;48.106;11.544;2022-10-31T08:06:22;9.50;99.90
14097;DHT22;7125;48.106;11.544;2022-10-31T08:09:12;9.60;99.90
14097;DHT22;7125;48.106;11.544;2022-10-31T08:11:40;9.70;99.90
14097;DHT22;7125;48.106;11.544;2022-10-31T08:14:08;9.80;99.90
14097;DHT22;7125;48.106;11.544;2022-10-31T08:16:36;9.90;99.90
14097;DHT22;7125;48.106;11.544;2022-10-31T08:19:05;10.00;99.90
14097;DHT22;7125;48.106;11.544;2022-10-31T08:21:37;10.10;99.90
14097;DHT22;7125;48.106;11.544;2022-10-31T08:24:05;10.20;99.90
14097;DHT22;7125;48.106;11.544;2022-10-31T08:26:33;10.30;99.90
14097;DHT22;7125;48.106;11.544;2022-10-31T08:29:00;10.40;99.90
14097;DHT22;7125;48.106;11.544;2022-10-31T08:31:34;10.60;99.90
14097;DHT22;7125;48.106;11.544;2022-10-31T08:34:39;10.70;99.90
14097;DHT22;7125;48.106;11.544;2022-10-31T08:37:42;10.90;99.90
14097;DHT22;7125;48.106;11.544;2022-10-31T08:40:10;11.00;99.90
14097;DHT22;7125;48.106;11.544;2022-10-31T08:42:39;11.10;99.90
14097;DHT22;7125;48.106;11.544;2022-10-31T08:45:07;11.30;99.90
14097;DHT22;7125;48.106;11.544;2022-10-31T08:47:36;11.40;99.90
14097;DHT22;7125;48.106;11.544;2022-10-31T08:50:04;11.50;99.90
14097;DHT22;7125;48.106;11.544;2022-10-31T08:52:32;11.60;99.90
14097;DHT22;7125;48.106;11.544;2022-10-31T08:55:01;11.70;99.90
14097;DHT22;7125;48.106;11.544;2022-10-31T08:57:47;11.90;99.90
14097;DHT22;7125;48.106;11.544;2022-10-31T09:00:14;12.00;99.90
14097;DHT22;7125;48.106;11.544;2022-10-31T09:02:58;12.20;99.90
14097;DHT22;7125;48.106;11.544;2022-10-31T09:05:28;12.30;99.90
14097;DHT22;7125;48.106;11.544;2022-10-31T09:07:57;12.50;99.90
14097;DHT22;7125;48.106;11.544;2022-10-31T09:10:26;12.70;99.90
14097;DHT22;7125;48.106;11.544;2022-10-31T09:12:56;12.90;99.90
14097;DHT22;7125;48.106;11.544;2022-10-31T09:21:03;13.30;99.90
14097;DHT22;7125;48.106;11.544;2022-10-31T09:23:30;13.40;99.90
14097;DHT22;7125;48.106;11.544;2022-10-31T09:26:00;13.50;99.90
14097;DHT22;7125;48.106;11.544;2022-10-31T09:28:34;13.60;99.90
14097;DHT22;7125;48.106;11.544;2022-10-31T09:31:09;13.70;99.90
14097;DHT22;7125;48.106;11.544;2022-10-31T09:34:00;13.70;99.90
14097;DHT22;7125;48.106;11.544;2022-10-31T09:36:38;13.80;99.90
14097;DHT22;7125;48.106;11.544;2022-10-31T09:39:08;13.90;99.90
14097;DHT22;7125;48.106;11.544;2022-10-31T09:41:59;13.90;99.90
14097;DHT22;7125;48.106;11.544;2022-10-31T09:44:38;14.10;99.90
14097;DHT22;7125;48.106;11.544;2022-10-31T09:47:15;14.20;99.90
14097;DHT22;7125;48.106;11.544;2022-10-31T09:50:03;14.30;99.90
14097;DHT22;7125;48.106;11.544;2022-10-31T09:52:38;14.40;99.90
14097;DHT22;7125;48.106;11.544;2022-10-31T09:55:14;14.50;99.90
14097;DHT22;7125;48.106;11.544;2022-10-31T09:57:43;14.50;99.90
14097;DHT22;7125;48.106;11.544;2022-10-31T10:00:16;14.60;99.90
14097;DHT22;7125;48.106;11.544;2022-10-31T10:02:48;14.60;99.90
14097;DHT22;7125;48.106;11.544;2022-10-31T10:05:24;14.70;99.90
14097;DHT22;7125;48.106;11.544;2022-10-31T10:08:01;14.80;99.90
14097;DHT22;7125;48.106;11.544;2022-10-31T10:11:00;14.90;99.90
14097;DHT22;7125;48.106;11.544;2022-10-31T10:13:57;15.00;99.90
14097;DHT22;7125;48.106;11.544;2022-10-31T10:16:49;15.20;99.90
14097;DHT22;7125;48.106;11.544;2022-10-31T10:19:45;15.40;99.90
14097;DHT22;7125;48.106;11.544;2022-10-31T10:22:23;15.50;99.90
14097;DHT22;7125;48.106;11.544;2022-10-31T10:25:08;15.70;99.90
14097;DHT22;7125;48.106;11.544;2022-10-31T10:27:47;15.90;99.90
14097;DHT22;7125;48.106;11.544;2022-10-31T10:30:18;16.10;99.90
14097;DHT22;7125;48.106;11.544;2022-10-31T10:32:48;16.30;99.90
14097;DHT22;7125;48.106;11.544;2022-10-31T10:35:24;16.50;99.90
14097;DHT22;7125;48.106;11.544;2022-10-31T10:37:56;16.60;99.90
14097;DHT22;7125;48.106;11.544;2022-10-31T10:40:27;16.70;99.90
14097;DHT22;7125;48.106;11.544;2022-10-31T10:43:00;16.80;99.90
14097;DHT22;7125;48.106;11.544;2022-10-31T10:45:50;16.90;99.90
14097;DHT22;7125;48.106;11.544;2022-10-31T10:48:43;17.00;99.90
14097;DHT22;7125;48.106;11.544;2022-10-31T10:51:19;17.10;99.90
14097;DHT22;7125;48.106;11.544;2022-10-31T10:53:54;17.20;99.90
14097;DHT22;7125;48.106;11.544;2022-10-31T10:56:39;17.30;99.90
14097;DHT22;7125;48.106;11.544;2022-10-31T10:59:11;17.30;99.90
14097;DHT22;7125;48.106;11.544;2022-10-31T11:01:39;17.40;99.90
14097;DHT22;7125;48.106;11.544;2022-10-31T11:04:29;17.40;99.90
14097;DHT22;7125;48.106;11.544;2022-10-31T11:07:00;17.50;99.90
14097;DHT22;7125;48.106;11.544;2022-10-31T11:09:28;17.50;99.90
14097;DHT22;7125;48.106;11.544;2022-10-31T11:11:58;17.60;99.90
14097;DHT22;7125;48.106;11.544;2022-10-31T11:14:26;17.60;99.90
14097;DHT22;7125;48.106;11.544;2022-10-31T11:16:55;17.70;99.90
14097;DHT22;7125;48.106;11.544;2022-10-31T11:19:33;17.80;99.90
14097;DHT22;7125;48.106;11.544;2022-10-31T11:22:06;18.00;99.90
14097;DHT22;7125;48.106;11.544;2022-10-31T11:24:38;18.10;99.90
14097;DHT22;7125;48.106;11.544;2022-10-31T11:27:14;18.20;99.90
14097;DHT22;7125;48.106;11.544;2022-10-31T11:29:41;18.40;99.90
14097;DHT22;7125;48.106;11.544;2022-10-31T11:32:18;18.60;99.90
14097;DHT22;7125;48.106;11.544;2022-10-31T11:34:47;18.80;99.90
14097;DHT22;7125;48.106;11.544;2022-10-31T11:37:19;18.90;99.90
14097;DHT22;7125;48.106;11.544;2022-10-31T11:39:49;19.00;99.90
14097;DHT22;7125;48.106;11.544;2022-10-31T11:42:22;19.00;99.90
14097;DHT22;7125;48.106;11.544;2022-10-31T11:44:50;19.10;99.90
14097;DHT22;7125;48.106;11.544;2022-10-31T11:47:24;19.10;99.90
14097;DHT22;7125;48.106;11.544;2022-10-31T11:49:52;19.10;99.90
14097;DHT22;7125;48.106;11.544;2022-10-31T11:52:21;19.10;99.90
14097;DHT22;7125;48.106;11.544;2022-10-31T11:54:53;19.10;99.90
14097;DHT22;7125;48.106;11.544;2022-10-31T11:57:27;19.10;99.90
14097;DHT22;7125;48.106;11.544;2022-10-31T11:59:56;19.00;99.90
14097;DHT22;7125;48.106;11.544;2022-10-31T12:02:24;19.00;99.90
14097;DHT22;7125;48.106;11.544;2022-10-31T12:05:06;18.90;99.90
14097;DHT22;7125;48.106;11.544;2022-10-31T12:07:35;18.90;99.90
14097;DHT22;7125;48.106;11.544;2022-10-31T12:10:05;18.80;99.90
14097;DHT22;7125;48.106;11.544;2022-10-31T12:12:51;18.80;99.90
14097;DHT22;7125;48.106;11.544;2022-10-31T12:15:29;18.60;99.90
14097;DHT22;7125;48.106;11.544;2022-10-31T12:20:57;18.50;99.90
14097;DHT22;7125;48.106;11.544;2022-10-31T12:23:36;18.40;99.90
14097;DHT22;7125;48.106;11.544;2022-10-31T12:26:11;18.30;99.90
14097;DHT22;7125;48.106;11.544;2022-10-31T12:28:54;18.30;99.90
14097;DHT22;7125;48.106;11.544;2022-10-31T12:31:38;18.30;99.90
14097;DHT22;7125;48.106;11.544;2022-10-31T12:34:29;18.30;99.90
14097;DHT22;7125;48.106;11.544;2022-10-31T12:37:05;18.30;99.90
14097;DHT22;7125;48.106;11.544;2022-10-31T12:39:42;18.30;99.90
14097;DHT22;7125;48.106;11.544;2022-10-31T12:42:19;18.30;99.90
14097;DHT22;7125;48.106;11.544;2022-10-31T12:45:27;18.40;99.90
14097;DHT22;7125;48.106;11.544;2022-10-31T12:48:10;18.40;99.90
14097;DHT22;7125;48.106;11.544;2022-10-31T12:50:50;18.60;99.90
14097;DHT22;7125;48.106;11.544;2022-10-31T12:53:27;18.70;99.90
14097;DHT22;7125;48.106;11.544;2022-10-31T12:56:09;18.80;99.90
14097;DHT22;7125;48.106;11.544;2022-10-31T12:58:43;18.90;99.90
14097;DHT22;7125;48.106;11.544;2022-10-31T13:01:16;18.90;99.90
14097;DHT22;7125;48.106;11.544;2022-10-31T13:03:48;19.00;99.90
14097;DHT22;7125;48.106;11.544;2022-10-31T13:06:20;19.00;99.90
14097;DHT22;7125;48.106;11.544;2022-10-31T13:08:51;19.00;99.90
14097;DHT22;7125;48.106;11.544;2022-10-31T13:11:22;19.10;99.90
14097;DHT22;7125;48.106;11.544;2022-10-31T13:13:57;19.10;99.90
14097;DHT22;7125;48.106;11.544;2022-10-31T13:16:29;19.20;99.90
14097;DHT22;7125;48.106;11.544;2022-10-31T13:19:01;19.10;99.90
14097;DHT22;7125;48.106;11.544;2022-10-31T13:21:34;19.10;99.90
14097;DHT22;7125;48.106;11.544;2022-10-31T13:24:07;19.10;99.90
14097;DHT22;7125;48.106;11.544;2022-10-31T13:26:38;19.10;99.90
14097;DHT22;7125;48.106;11.544;2022-10-31T13:29:14;19.00;99.90
14097;DHT22;7125;48.106;11.544;2022-10-31T13:31:45;18.90;99.90
14097;DHT22;7125;48.106;11.544;2022-10-31T13:34:20;18.80;99.90
14097;DHT22;7125;48.106;11.544;2022-10-31T13:36:58;18.70;99.90
14097;DHT22;7125;48.106;11.544;2022-10-31T13:39:34;18.60;99.90
14097;DHT22;7125;48.106;11.544;2022-10-31T13:42:13;18.50;99.90
14097;DHT22;7125;48.106;11.544;2022-10-31T13:44:42;18.40;99.90
14097;DHT22;7125;48.106;11.544;2022-10-31T13:47:25;18.30;99.90
14097;DHT22;7125;48.106;11.544;2022-10-31T13:50:03;18.30;99.90
14097;DHT22;7125;48.106;11.544;2022-10-31T13:52:31;18.20;99.90
14097;DHT22;7125;48.106;11.544;2022-10-31T13:54:58;18.10;99.90
14097;DHT22;7125;48.106;11.544;2022-10-31T13:57:31;18.10;99.90
14097;DHT22;7125;48.106;11.544;2022-10-31T14:00:01;18.00;99.90
14097;DHT22;7125;48.106;11.544;2022-10-31T14:02:46;17.90;99.90
14097;DHT22;7125;48.106;11.544;2022-10-31T14:05:22;17.90;99.90
14097;DHT22;7125;48.106;11.544;2022-10-31T14:07:51;17.90;99.90
14097;DHT22;7125;48.106;11.544;2022-10-31T14:10:24;17.80;99.90
14097;DHT22;7125;48.106;11.544;2022-10-31T14:13:02;17.80;99.90
14097;DHT22;7125;48.106;11.544;2022-10-31T14:15:30;17.80;99.90
14097;DHT22;7125;48.106;11.544;2022-10-31T14:18:01;17.80;99.90
14097;DHT22;7125;48.106;11.544;2022-10-31T14:20:38;17.80;99.90
14097;DHT22;7125;48.106;11.544;2022-10-31T14:23:34;17.90;99.90
14097;DHT22;7125;48.106;11.544;2022-10-31T14:26:30;17.90;99.90
14097;DHT22;7125;48.106;11.544;2022-10-31T14:28:59;17.90;99.90
14097;DHT22;7125;48.106;11.544;2022-10-31T14:31:31;17.90;99.90
14097;DHT22;7125;48.106;11.544;2022-10-31T14:34:17;17.90;99.90
14097;DHT22;7125;48.106;11.544;2022-10-31T14:36:56;17.90;99.90
14097;DHT22;7125;48.106;11.544;2022-10-31T14:39:31;17.90;99.90
14097;DHT22;7125;48.106;11.544;2022-10-31T14:42:10;17.80;99.90
14097;DHT22;7125;48.106;11.544;2022-10-31T14:48:06;17.70;99.90
14097;DHT22;7125;48.106;11.544;2022-10-31T14:50:47;17.70;99.90
14097;DHT22;7125;48.106;11.544;2022-10-31T14:53:20;17.60;99.90
14097;DHT22;7125;48.106;11.544;2022-10-31T14:55:51;17.60;99.90
14097;DHT22;7125;48.106;11.544;2022-10-31T14:58:21;17.50;99.90
14097;DHT22;7125;48.106;11.544;2022-10-31T15:00:51;17.50;99.90
14097;DHT22;7125;48.106;11.544;2022-10-31T15:03:24;17.50;99.90
14097;DHT22;7125;48.106;11.544;2022-10-31T15:05:56;17.30;99.90
14097;DHT22;7125;48.106;11.544;2022-10-31T15:08:33;17.20;99.90
14097;DHT22;7125;48.106;11.544;2022-10-31T15:11:03;17.10;99.90
14097;DHT22;7125;48.106;11.544;2022-10-31T15:13:41;17.00;99.90
14097;DHT22;7125;48.106;11.544;2022-10-31T15:16:10;17.00;99.90
14097;DHT22;7125;48.106;11.544;2022-10-31T15:18:46;16.90;99.90
14097;DHT22;7125;48.106;11.544;2022-10-31T15:21:16;16.80;99.90
14097;DHT22;7125;48.106;11.544;2022-10-31T15:23:44;16.70;99.90
14097;DHT22;7125;48.106;11.544;2022-10-31T15:26:16;16.60;99.90
14097;DHT22;7125;48.106;11.544;2022-10-31T15:28:43;16.60;99.90
14097;DHT22;7125;48.106;11.544;2022-10-31T15:31:15;16.50;99.90
14097;DHT22;7125;48.106;11.544;2022-10-31T15:33:47;16.40;99.90
14097;DHT22;7125;48.106;11.544;2022-10-31T15:36:21;16.40;99.90
14097;DHT22;7125;48.106;11.544;2022-10-31T15:38:48;16.30;99.90
14097;DHT22;7125;48.106;11.544;2022-10-31T15:41:24;16.10;99.90
14097;DHT22;7125;48.106;11.544;2022-10-31T15:43:54;16.10;99.90
14097;DHT22;7125;48.106;11.544;2022-10-31T15:46:21;15.90;99.90
14097;DHT22;7125;48.106;11.544;2022-10-31T15:48:48;15.90;99.90
14097;DHT22;7125;48.106;11.544;2022-10-31T15:51:15;15.70;99.90
14097;DHT22;7125;48.106;11.544;2022-10-31T15:53:46;15.60;99.90
14097;DHT22;7125;48.106;11.544;2022-10-31T15:56:20;15.50;99.90
14097;DHT22;7125;48.106;11.544;2022-10-31T15:58:50;15.40;99.90
14097;DHT22;7125;48.106;11.544;2022-10-31T16:01:22;15.30;99.90
14097;DHT22;7125;48.106;11.544;2022-10-31T16:04:02;15.20;99.90
14097;DHT22;7125;48.106;11.544;2022-10-31T16:06:30;15.10;99.90
14097;DHT22;7125;48.106;11.544;2022-10-31T16:08:58;15.00;99.90
14097;DHT22;7125;48.106;11.544;2022-10-31T16:11:32;14.90;99.90
14097;DHT22;7125;48.106;11.544;2022-10-31T16:14:02;14.80;99.90
14097;DHT22;7125;48.106;11.544;2022-10-31T16:16:32;14.60;99.90
14097;DHT22;7125;48.106;11.544;2022-10-31T16:19:00;14.60;99.90
14097;DHT22;7125;48.106;11.544;2022-10-31T16:21:30;14.40;99.90
14097;DHT22;7125;48.106;11.544;2022-10-31T16:24:01;14.40;99.90
14097;DHT22;7125;48.106;11.544;2022-10-31T16:26:29;14.20;99.90
14097;DHT22;7125;48.106;11.544;2022-10-31T16:28:58;14.10;99.90